Santa Coloma de Gramanet, Spain
Current Conditions -  °F | °C
As of 2:30 PM on Tuesday 21 Oct 2014 (Local Time) from LELL Reporting Station
Clear Clear  
Wind Chill: 79°   Ceiling: Unl
Heat Index: 80°   Visibility: 6mi
Dew Point: 61°   Wind: 6mph
Humidity: 54%   Direction: 130°SE
Pressure: 30.09"   Gusts: NA
Location:  41.45°N, 2.22°E
Report Text: LELL 211230Z 13005KT 070V160 CAVOK 26/16 Q1019
Loading
Personal Weather Stations






























Interactive Weather Map New forecast layout! Learn more

10-Day Weather Forecast

Advertisements
Track Severe Weather on mobile